sensor_id;sensor_type;location;lat;lon;timestamp;P1;durP1;ratioP1;P2;durP2;ratioP2
39948;SDS011;29070;48.102;-1.652;2023-04-24T00:04:47;5.10;;;1.75;;
39948;SDS011;29070;48.102;-1.652;2023-04-24T00:09:48;3.90;;;2.05;;
39948;SDS011;29070;48.102;-1.652;2023-04-24T00:14:49;7.97;;;2.70;;
39948;SDS011;29070;48.102;-1.652;2023-04-24T00:19:49;6.93;;;1.98;;
39948;SDS011;29070;48.102;-1.652;2023-04-24T00:24:58;5.25;;;2.38;;
39948;SDS011;29070;48.102;-1.652;2023-04-24T00:29:58;6.57;;;2.50;;
39948;SDS011;29070;48.102;-1.652;2023-04-24T00:34:58;4.57;;;2.33;;
39948;SDS011;29070;48.102;-1.652;2023-04-24T00:39:59;8.43;;;2.50;;
39948;SDS011;29070;48.102;-1.652;2023-04-24T00:44:59;3.90;;;2.43;;
39948;SDS011;29070;48.102;-1.652;2023-04-24T00:50:02;6.00;;;2.10;;
39948;SDS011;29070;48.102;-1.652;2023-04-24T00:55:03;6.28;;;2.38;;
39948;SDS011;29070;48.102;-1.652;2023-04-24T01:00:05;5.80;;;1.88;;
39948;SDS011;29070;48.102;-1.652;2023-04-24T01:05:12;5.35;;;1.80;;
39948;SDS011;29070;48.102;-1.652;2023-04-24T01:10:13;5.22;;;2.28;;
39948;SDS011;29070;48.102;-1.652;2023-04-24T01:15:14;5.75;;;2.35;;
39948;SDS011;29070;48.102;-1.652;2023-04-24T01:20:16;8.13;;;2.50;;
39948;SDS011;29070;48.102;-1.652;2023-04-24T01:25:17;6.47;;;2.80;;
39948;SDS011;29070;48.102;-1.652;2023-04-24T01:30:17;6.47;;;2.43;;
39948;SDS011;29070;48.102;-1.652;2023-04-24T01:35:18;6.13;;;2.55;;
39948;SDS011;29070;48.102;-1.652;2023-04-24T01:40:19;7.72;;;2.50;;
39948;SDS011;29070;48.102;-1.652;2023-04-24T01:45:20;5.73;;;2.87;;
39948;SDS011;29070;48.102;-1.652;2023-04-24T01:50:22;6.85;;;2.72;;
39948;SDS011;29070;48.102;-1.652;2023-04-24T01:55:22;5.97;;;2.23;;
39948;SDS011;29070;48.102;-1.652;2023-04-24T02:00:22;7.65;;;2.45;;
39948;SDS011;29070;48.102;-1.652;2023-04-24T02:05:24;6.47;;;2.58;;
39948;SDS011;29070;48.102;-1.652;2023-04-24T02:10:25;9.40;;;2.80;;
39948;SDS011;29070;48.102;-1.652;2023-04-24T02:15:25;7.22;;;2.88;;
39948;SDS011;29070;48.102;-1.652;2023-04-24T02:20:25;11.27;;;2.47;;
39948;SDS011;29070;48.102;-1.652;2023-04-24T02:25:26;7.47;;;2.33;;
39948;SDS011;29070;48.102;-1.652;2023-04-24T02:30:26;8.50;;;2.03;;
39948;SDS011;29070;48.102;-1.652;2023-04-24T02:35:26;4.83;;;2.20;;
39948;SDS011;29070;48.102;-1.652;2023-04-24T02:40:27;4.60;;;2.10;;
39948;SDS011;29070;48.102;-1.652;2023-04-24T02:45:27;10.07;;;2.37;;
39948;SDS011;29070;48.102;-1.652;2023-04-24T02:50:27;6.83;;;2.27;;
39948;SDS011;29070;48.102;-1.652;2023-04-24T02:55:28;6.47;;;2.28;;
39948;SDS011;29070;48.102;-1.652;2023-04-24T03:00:29;5.78;;;2.28;;
39948;SDS011;29070;48.102;-1.652;2023-04-24T03:05:29;6.43;;;2.45;;
39948;SDS011;29070;48.102;-1.652;2023-04-24T03:10:30;6.70;;;2.20;;
39948;SDS011;29070;48.102;-1.652;2023-04-24T03:15:32;7.40;;;2.10;;
39948;SDS011;29070;48.102;-1.652;2023-04-24T03:20:32;5.97;;;2.30;;
39948;SDS011;29070;48.102;-1.652;2023-04-24T03:25:32;6.27;;;2.27;;
39948;SDS011;29070;48.102;-1.652;2023-04-24T03:30:33;12.63;;;2.27;;
39948;SDS011;29070;48.102;-1.652;2023-04-24T03:35:33;8.40;;;2.80;;
39948;SDS011;29070;48.102;-1.652;2023-04-24T03:40:33;9.13;;;2.30;;
39948;SDS011;29070;48.102;-1.652;2023-04-24T03:45:34;4.07;;;2.25;;
39948;SDS011;29070;48.102;-1.652;2023-04-24T03:50:34;5.20;;;2.33;;
39948;SDS011;29070;48.102;-1.652;2023-04-24T03:55:35;9.53;;;2.40;;
39948;SDS011;29070;48.102;-1.652;2023-04-24T04:00:35;4.50;;;2.00;;
39948;SDS011;29070;48.102;-1.652;2023-04-24T04:05:37;5.72;;;1.65;;
39948;SDS011;29070;48.102;-1.652;2023-04-24T04:10:37;5.93;;;1.90;;
39948;SDS011;29070;48.102;-1.652;2023-04-24T04:15:38;6.90;;;2.22;;
39948;SDS011;29070;48.102;-1.652;2023-04-24T04:20:39;4.25;;;1.65;;
39948;SDS011;29070;48.102;-1.652;2023-04-24T04:25:39;5.67;;;2.00;;
39948;SDS011;29070;48.102;-1.652;2023-04-24T04:30:40;6.53;;;2.15;;
39948;SDS011;29070;48.102;-1.652;2023-04-24T04:35:41;6.97;;;1.90;;
39948;SDS011;29070;48.102;-1.652;2023-04-24T04:40:42;5.35;;;2.05;;
39948;SDS011;29070;48.102;-1.652;2023-04-24T04:45:43;5.80;;;1.90;;
39948;SDS011;29070;48.102;-1.652;2023-04-24T04:50:44;6.47;;;1.80;;
39948;SDS011;29070;48.102;-1.652;2023-04-24T04:55:45;6.85;;;1.90;;
39948;SDS011;29070;48.102;-1.652;2023-04-24T05:00:46;5.72;;;1.90;;
39948;SDS011;29070;48.102;-1.652;2023-04-24T05:05:46;8.60;;;2.00;;
39948;SDS011;29070;48.102;-1.652;2023-04-24T05:10:47;4.37;;;2.40;;
39948;SDS011;29070;48.102;-1.652;2023-04-24T05:15:47;4.13;;;1.83;;
39948;SDS011;29070;48.102;-1.652;2023-04-24T05:20:47;5.40;;;1.87;;
39948;SDS011;29070;48.102;-1.652;2023-04-24T05:25:48;9.77;;;1.93;;
39948;SDS011;29070;48.102;-1.652;2023-04-24T05:30:48;8.13;;;1.80;;
39948;SDS011;29070;48.102;-1.652;2023-04-24T05:35:48;4.13;;;2.43;;
39948;SDS011;29070;48.102;-1.652;2023-04-24T05:40:49;6.18;;;2.22;;
39948;SDS011;29070;48.102;-1.652;2023-04-24T05:45:49;14.23;;;1.93;;
39948;SDS011;29070;48.102;-1.652;2023-04-24T05:50:50;6.45;;;1.90;;
39948;SDS011;29070;48.102;-1.652;2023-04-24T05:55:50;4.80;;;2.10;;
39948;SDS011;29070;48.102;-1.652;2023-04-24T06:00:51;5.20;;;2.00;;
39948;SDS011;29070;48.102;-1.652;2023-04-24T06:05:51;7.80;;;2.33;;
39948;SDS011;29070;48.102;-1.652;2023-04-24T06:10:52;11.23;;;2.07;;
39948;SDS011;29070;48.102;-1.652;2023-04-24T06:15:52;6.83;;;2.17;;
39948;SDS011;29070;48.102;-1.652;2023-04-24T06:20:53;5.93;;;1.70;;
39948;SDS011;29070;48.102;-1.652;2023-04-24T06:25:55;5.80;;;2.25;;
39948;SDS011;29070;48.102;-1.652;2023-04-24T06:30:55;7.93;;;1.93;;
39948;SDS011;29070;48.102;-1.652;2023-04-24T06:35:56;9.50;;;2.13;;
39948;SDS011;29070;48.102;-1.652;2023-04-24T06:40:56;7.05;;;1.88;;
39948;SDS011;29070;48.102;-1.652;2023-04-24T06:45:57;7.72;;;1.63;;
39948;SDS011;29070;48.102;-1.652;2023-04-24T06:50:58;9.13;;;2.00;;
39948;SDS011;29070;48.102;-1.652;2023-04-24T06:55:58;4.60;;;1.92;;
39948;SDS011;29070;48.102;-1.652;2023-04-24T07:01:00;6.63;;;2.10;;
39948;SDS011;29070;48.102;-1.652;2023-04-24T07:06:00;6.23;;;2.10;;
39948;SDS011;29070;48.102;-1.652;2023-04-24T07:11:01;8.65;;;2.10;;
39948;SDS011;29070;48.102;-1.652;2023-04-24T07:16:01;3.65;;;1.63;;
39948;SDS011;29070;48.102;-1.652;2023-04-24T07:21:02;2.83;;;1.77;;
39948;SDS011;29070;48.102;-1.652;2023-04-24T07:26:02;4.00;;;1.60;;
39948;SDS011;29070;48.102;-1.652;2023-04-24T07:31:03;5.30;;;2.05;;
39948;SDS011;29070;48.102;-1.652;2023-04-24T07:36:03;4.37;;;1.80;;
39948;SDS011;29070;48.102;-1.652;2023-04-24T07:41:04;4.55;;;1.60;;
39948;SDS011;29070;48.102;-1.652;2023-04-24T07:46:04;4.75;;;1.48;;
39948;SDS011;29070;48.102;-1.652;2023-04-24T07:51:06;5.07;;;1.65;;
39948;SDS011;29070;48.102;-1.652;2023-04-24T07:56:06;3.17;;;1.60;;
39948;SDS011;29070;48.102;-1.652;2023-04-24T08:01:06;2.00;;;1.50;;
39948;SDS011;29070;48.102;-1.652;2023-04-24T08:06:07;4.88;;;1.75;;
39948;SDS011;29070;48.102;-1.652;2023-04-24T08:11:07;6.90;;;1.90;;
39948;SDS011;29070;48.102;-1.652;2023-04-24T08:16:08;4.28;;;1.90;;
39948;SDS011;29070;48.102;-1.652;2023-04-24T08:21:08;7.23;;;2.00;;
39948;SDS011;29070;48.102;-1.652;2023-04-24T08:26:08;2.55;;;1.63;;
39948;SDS011;29070;48.102;-1.652;2023-04-24T08:31:09;5.68;;;1.90;;
39948;SDS011;29070;48.102;-1.652;2023-04-24T08:36:09;4.80;;;1.70;;
39948;SDS011;29070;48.102;-1.652;2023-04-24T08:41:10;5.03;;;1.63;;
39948;SDS011;29070;48.102;-1.652;2023-04-24T08:46:11;4.20;;;1.75;;
39948;SDS011;29070;48.102;-1.652;2023-04-24T08:51:13;5.43;;;1.40;;
39948;SDS011;29070;48.102;-1.652;2023-04-24T08:56:13;6.30;;;1.50;;
39948;SDS011;29070;48.102;-1.652;2023-04-24T09:01:14;6.67;;;1.40;;
39948;SDS011;29070;48.102;-1.652;2023-04-24T09:06:14;3.90;;;1.60;;
39948;SDS011;29070;48.102;-1.652;2023-04-24T09:11:17;3.75;;;1.58;;
39948;SDS011;29070;48.102;-1.652;2023-04-24T09:16:18;6.53;;;1.73;;
39948;SDS011;29070;48.102;-1.652;2023-04-24T09:21:21;7.28;;;1.83;;
39948;SDS011;29070;48.102;-1.652;2023-04-24T09:26:23;3.40;;;1.40;;
39948;SDS011;29070;48.102;-1.652;2023-04-24T09:31:24;7.40;;;1.52;;
39948;SDS011;29070;48.102;-1.652;2023-04-24T09:36:31;3.80;;;1.73;;
39948;SDS011;29070;48.102;-1.652;2023-04-24T09:46:52;5.53;;;2.17;;
39948;SDS011;29070;48.102;-1.652;2023-04-24T09:52:04;10.10;;;1.73;;
39948;SDS011;29070;48.102;-1.652;2023-04-24T09:57:09;6.53;;;1.95;;
39948;SDS011;29070;48.102;-1.652;2023-04-24T10:02:19;5.10;;;2.05;;
39948;SDS011;29070;48.102;-1.652;2023-04-24T10:07:20;7.38;;;1.70;;
39948;SDS011;29070;48.102;-1.652;2023-04-24T10:12:20;4.60;;;2.00;;
39948;SDS011;29070;48.102;-1.652;2023-04-24T10:17:21;11.13;;;1.88;;
39948;SDS011;29070;48.102;-1.652;2023-04-24T10:22:23;6.63;;;1.52;;
39948;SDS011;29070;48.102;-1.652;2023-04-24T10:27:24;4.72;;;1.38;;
39948;SDS011;29070;48.102;-1.652;2023-04-24T10:32:26;6.72;;;1.73;;
39948;SDS011;29070;48.102;-1.652;2023-04-24T10:37:27;6.23;;;1.70;;
39948;SDS011;29070;48.102;-1.652;2023-04-24T10:42:27;6.40;;;2.08;;
39948;SDS011;29070;48.102;-1.652;2023-04-24T10:47:28;7.40;;;1.85;;
39948;SDS011;29070;48.102;-1.652;2023-04-24T10:52:43;4.93;;;1.60;;
39948;SDS011;29070;48.102;-1.652;2023-04-24T10:58:01;7.63;;;1.70;;
39948;SDS011;29070;48.102;-1.652;2023-04-24T11:03:04;4.50;;;1.40;;
39948;SDS011;29070;48.102;-1.652;2023-04-24T11:08:12;8.82;;;1.75;;
39948;SDS011;29070;48.102;-1.652;2023-04-24T11:13:14;6.00;;;1.85;;
39948;SDS011;29070;48.102;-1.652;2023-04-24T11:18:16;3.97;;;1.60;;
39948;SDS011;29070;48.102;-1.652;2023-04-24T11:23:16;4.43;;;1.35;;
39948;SDS011;29070;48.102;-1.652;2023-04-24T11:28:18;8.48;;;1.90;;
39948;SDS011;29070;48.102;-1.652;2023-04-24T11:33:19;5.88;;;1.25;;
39948;SDS011;29070;48.102;-1.652;2023-04-24T11:38:21;7.50;;;1.73;;
39948;SDS011;29070;48.102;-1.652;2023-04-24T11:43:21;5.80;;;1.67;;
39948;SDS011;29070;48.102;-1.652;2023-04-24T11:48:23;6.72;;;2.05;;
39948;SDS011;29070;48.102;-1.652;2023-04-24T11:53:23;10.50;;;1.37;;
39948;SDS011;29070;48.102;-1.652;2023-04-24T11:58:23;7.50;;;1.57;;
39948;SDS011;29070;48.102;-1.652;2023-04-24T12:03:24;3.15;;;1.35;;
39948;SDS011;29070;48.102;-1.652;2023-04-24T12:08:28;6.43;;;1.58;;
39948;SDS011;29070;48.102;-1.652;2023-04-24T12:13:29;3.40;;;1.33;;
39948;SDS011;29070;48.102;-1.652;2023-04-24T12:18:30;3.70;;;1.50;;
39948;SDS011;29070;48.102;-1.652;2023-04-24T12:23:34;4.95;;;1.48;;
39948;SDS011;29070;48.102;-1.652;2023-04-24T12:28:36;4.25;;;1.73;;
39948;SDS011;29070;48.102;-1.652;2023-04-24T12:33:37;4.53;;;1.42;;
39948;SDS011;29070;48.102;-1.652;2023-04-24T12:38:38;5.43;;;1.20;;
39948;SDS011;29070;48.102;-1.652;2023-04-24T12:43:51;6.05;;;1.40;;
39948;SDS011;29070;48.102;-1.652;2023-04-24T12:48:52;8.60;;;1.35;;
39948;SDS011;29070;48.102;-1.652;2023-04-24T12:53:53;3.25;;;1.33;;
39948;SDS011;29070;48.102;-1.652;2023-04-24T12:58:53;8.60;;;1.20;;
39948;SDS011;29070;48.102;-1.652;2023-04-24T13:03:53;9.90;;;1.80;;
39948;SDS011;29070;48.102;-1.652;2023-04-24T13:08:54;4.18;;;1.30;;
39948;SDS011;29070;48.102;-1.652;2023-04-24T13:13:56;3.25;;;1.02;;
39948;SDS011;29070;48.102;-1.652;2023-04-24T13:18:57;5.75;;;1.38;;
39948;SDS011;29070;48.102;-1.652;2023-04-24T13:23:57;6.73;;;1.20;;
39948;SDS011;29070;48.102;-1.652;2023-04-24T13:28:58;6.90;;;1.60;;
39948;SDS011;29070;48.102;-1.652;2023-04-24T13:33:58;2.77;;;1.40;;
39948;SDS011;29070;48.102;-1.652;2023-04-24T13:38:59;7.40;;;1.63;;
39948;SDS011;29070;48.102;-1.652;2023-04-24T13:43:59;6.07;;;1.60;;
39948;SDS011;29070;48.102;-1.652;2023-04-24T13:48:59;6.23;;;1.63;;
39948;SDS011;29070;48.102;-1.652;2023-04-24T13:54:01;4.70;;;1.30;;
39948;SDS011;29070;48.102;-1.652;2023-04-24T13:59:01;3.80;;;1.30;;
39948;SDS011;29070;48.102;-1.652;2023-04-24T14:04:02;3.03;;;1.25;;
39948;SDS011;29070;48.102;-1.652;2023-04-24T14:09:02;3.08;;;1.40;;
39948;SDS011;29070;48.102;-1.652;2023-04-24T14:14:03;4.87;;;1.57;;
39948;SDS011;29070;48.102;-1.652;2023-04-24T14:19:03;8.50;;;1.75;;
39948;SDS011;29070;48.102;-1.652;2023-04-24T14:24:05;8.63;;;1.45;;
39948;SDS011;29070;48.102;-1.652;2023-04-24T14:29:06;8.57;;;2.17;;
39948;SDS011;29070;48.102;-1.652;2023-04-24T14:34:06;7.73;;;1.60;;
39948;SDS011;29070;48.102;-1.652;2023-04-24T14:39:06;8.93;;;1.63;;
39948;SDS011;29070;48.102;-1.652;2023-04-24T14:44:07;6.33;;;2.10;;
39948;SDS011;29070;48.102;-1.652;2023-04-24T14:49:07;4.93;;;1.63;;
39948;SDS011;29070;48.102;-1.652;2023-04-24T14:54:09;4.45;;;1.50;;
39948;SDS011;29070;48.102;-1.652;2023-04-24T14:59:10;5.65;;;2.10;;
39948;SDS011;29070;48.102;-1.652;2023-04-24T15:04:10;6.22;;;1.75;;
39948;SDS011;29070;48.102;-1.652;2023-04-24T15:09:11;4.40;;;1.97;;
39948;SDS011;29070;48.102;-1.652;2023-04-24T15:14:11;5.10;;;1.30;;
39948;SDS011;29070;48.102;-1.652;2023-04-24T15:19:11;3.37;;;1.20;;
39948;SDS011;29070;48.102;-1.652;2023-04-24T15:24:12;3.93;;;1.03;;
39948;SDS011;29070;48.102;-1.652;2023-04-24T15:29:12;2.22;;;1.05;;
39948;SDS011;29070;48.102;-1.652;2023-04-24T15:34:12;2.10;;;0.93;;
39948;SDS011;29070;48.102;-1.652;2023-04-24T15:39:13;3.77;;;1.00;;
39948;SDS011;29070;48.102;-1.652;2023-04-24T15:44:13;7.77;;;2.03;;
39948;SDS011;29070;48.102;-1.652;2023-04-24T15:49:13;7.20;;;1.33;;
39948;SDS011;29070;48.102;-1.652;2023-04-24T15:54:14;6.80;;;1.27;;
39948;SDS011;29070;48.102;-1.652;2023-04-24T15:59:14;11.40;;;1.80;;
39948;SDS011;29070;48.102;-1.652;2023-04-24T16:04:15;9.03;;;1.70;;
39948;SDS011;29070;48.102;-1.652;2023-04-24T16:09:15;7.10;;;1.30;;
39948;SDS011;29070;48.102;-1.652;2023-04-24T16:14:15;3.37;;;1.20;;
39948;SDS011;29070;48.102;-1.652;2023-04-24T16:19:16;5.37;;;1.10;;
39948;SDS011;29070;48.102;-1.652;2023-04-24T16:24:16;6.83;;;1.60;;
39948;SDS011;29070;48.102;-1.652;2023-04-24T16:29:17;6.13;;;1.63;;
39948;SDS011;29070;48.102;-1.652;2023-04-24T16:34:18;4.00;;;1.58;;
39948;SDS011;29070;48.102;-1.652;2023-04-24T16:39:18;5.80;;;1.20;;
39948;SDS011;29070;48.102;-1.652;2023-04-24T16:44:19;4.25;;;1.45;;
39948;SDS011;29070;48.102;-1.652;2023-04-24T16:49:19;4.85;;;1.58;;
39948;SDS011;29070;48.102;-1.652;2023-04-24T16:54:20;7.03;;;1.40;;
39948;SDS011;29070;48.102;-1.652;2023-04-24T16:59:20;6.80;;;1.53;;
39948;SDS011;29070;48.102;-1.652;2023-04-24T17:04:20;3.22;;;1.25;;
39948;SDS011;29070;48.102;-1.652;2023-04-24T17:09:21;2.97;;;1.30;;
39948;SDS011;29070;48.102;-1.652;2023-04-24T17:14:21;4.53;;;1.50;;
39948;SDS011;29070;48.102;-1.652;2023-04-24T17:19:22;6.18;;;1.27;;
39948;SDS011;29070;48.102;-1.652;2023-04-24T17:24:24;5.93;;;1.40;;
39948;SDS011;29070;48.102;-1.652;2023-04-24T17:29:25;3.27;;;1.50;;
39948;SDS011;29070;48.102;-1.652;2023-04-24T17:34:25;7.10;;;1.63;;
39948;SDS011;29070;48.102;-1.652;2023-04-24T17:39:25;5.73;;;2.20;;
39948;SDS011;29070;48.102;-1.652;2023-04-24T17:44:26;5.90;;;1.77;;
39948;SDS011;29070;48.102;-1.652;2023-04-24T17:49:26;9.40;;;2.43;;
39948;SDS011;29070;48.102;-1.652;2023-04-24T17:54:26;6.13;;;1.67;;
39948;SDS011;29070;48.102;-1.652;2023-04-24T17:59:27;5.27;;;1.77;;
39948;SDS011;29070;48.102;-1.652;2023-04-24T18:04:27;5.03;;;1.90;;
39948;SDS011;29070;48.102;-1.652;2023-04-24T18:09:28;4.50;;;2.20;;
39948;SDS011;29070;48.102;-1.652;2023-04-24T18:14:28;5.83;;;2.03;;
39948;SDS011;29070;48.102;-1.652;2023-04-24T18:19:28;6.93;;;2.17;;
39948;SDS011;29070;48.102;-1.652;2023-04-24T18:24:29;6.20;;;2.67;;
39948;SDS011;29070;48.102;-1.652;2023-04-24T18:29:29;8.52;;;2.80;;
39948;SDS011;29070;48.102;-1.652;2023-04-24T18:34:29;8.83;;;2.30;;
39948;SDS011;29070;48.102;-1.652;2023-04-24T18:39:30;6.00;;;2.13;;
39948;SDS011;29070;48.102;-1.652;2023-04-24T18:44:30;7.07;;;2.67;;
39948;SDS011;29070;48.102;-1.652;2023-04-24T18:49:31;6.90;;;2.47;;
39948;SDS011;29070;48.102;-1.652;2023-04-24T18:54:31;6.13;;;2.27;;
39948;SDS011;29070;48.102;-1.652;2023-04-24T18:59:31;6.78;;;2.28;;
39948;SDS011;29070;48.102;-1.652;2023-04-24T19:04:32;4.37;;;2.37;;
39948;SDS011;29070;48.102;-1.652;2023-04-24T19:09:32;4.80;;;1.88;;
39948;SDS011;29070;48.102;-1.652;2023-04-24T19:14:33;6.80;;;2.17;;
39948;SDS011;29070;48.102;-1.652;2023-04-24T19:19:33;3.80;;;1.60;;
39948;SDS011;29070;48.102;-1.652;2023-04-24T19:24:34;5.10;;;2.07;;
39948;SDS011;29070;48.102;-1.652;2023-04-24T19:29:34;3.80;;;1.70;;
39948;SDS011;29070;48.102;-1.652;2023-04-24T19:34:34;5.53;;;1.87;;
39948;SDS011;29070;48.102;-1.652;2023-04-24T19:39:35;7.33;;;1.60;;
39948;SDS011;29070;48.102;-1.652;2023-04-24T19:44:35;4.30;;;1.77;;
39948;SDS011;29070;48.102;-1.652;2023-04-24T19:49:36;4.07;;;1.33;;
39948;SDS011;29070;48.102;-1.652;2023-04-24T19:54:36;4.37;;;1.90;;
39948;SDS011;29070;48.102;-1.652;2023-04-24T19:59:36;3.67;;;1.60;;
39948;SDS011;29070;48.102;-1.652;2023-04-24T20:04:37;5.50;;;1.63;;
39948;SDS011;29070;48.102;-1.652;2023-04-24T20:09:37;7.17;;;1.93;;
39948;SDS011;29070;48.102;-1.652;2023-04-24T20:14:37;4.77;;;1.83;;
39948;SDS011;29070;48.102;-1.652;2023-04-24T20:19:38;4.60;;;1.87;;
39948;SDS011;29070;48.102;-1.652;2023-04-24T20:24:39;7.18;;;2.20;;
39948;SDS011;29070;48.102;-1.652;2023-04-24T20:29:40;6.55;;;1.90;;
39948;SDS011;29070;48.102;-1.652;2023-04-24T20:34:40;10.43;;;2.38;;
39948;SDS011;29070;48.102;-1.652;2023-04-24T20:39:41;7.20;;;2.03;;
39948;SDS011;29070;48.102;-1.652;2023-04-24T20:44:43;9.75;;;2.00;;
39948;SDS011;29070;48.102;-1.652;2023-04-24T20:49:44;8.88;;;1.85;;
39948;SDS011;29070;48.102;-1.652;2023-04-24T20:54:45;7.93;;;1.90;;
39948;SDS011;29070;48.102;-1.652;2023-04-24T20:59:45;4.68;;;1.85;;
39948;SDS011;29070;48.102;-1.652;2023-04-24T21:04:46;6.65;;;1.50;;
39948;SDS011;29070;48.102;-1.652;2023-04-24T21:09:46;8.67;;;2.10;;
39948;SDS011;29070;48.102;-1.652;2023-04-24T21:14:47;5.30;;;1.67;;
39948;SDS011;29070;48.102;-1.652;2023-04-24T21:19:47;6.63;;;2.43;;
39948;SDS011;29070;48.102;-1.652;2023-04-24T21:24:47;6.73;;;1.97;;
39948;SDS011;29070;48.102;-1.652;2023-04-24T21:29:48;7.47;;;2.20;;
39948;SDS011;29070;48.102;-1.652;2023-04-24T21:34:48;9.70;;;2.20;;
39948;SDS011;29070;48.102;-1.652;2023-04-24T21:39:48;7.13;;;2.10;;
39948;SDS011;29070;48.102;-1.652;2023-04-24T21:44:49;9.73;;;2.30;;
39948;SDS011;29070;48.102;-1.652;2023-04-24T21:49:49;10.10;;;2.00;;
39948;SDS011;29070;48.102;-1.652;2023-04-24T21:54:49;10.37;;;1.80;;
39948;SDS011;29070;48.102;-1.652;2023-04-24T21:59:50;6.25;;;1.92;;
39948;SDS011;29070;48.102;-1.652;2023-04-24T22:04:50;6.93;;;1.77;;
39948;SDS011;29070;48.102;-1.652;2023-04-24T22:09:51;8.30;;;2.00;;
39948;SDS011;29070;48.102;-1.652;2023-04-24T22:14:52;10.50;;;2.20;;
39948;SDS011;29070;48.102;-1.652;2023-04-24T22:19:52;6.20;;;2.00;;
39948;SDS011;29070;48.102;-1.652;2023-04-24T22:24:53;9.35;;;2.28;;
39948;SDS011;29070;48.102;-1.652;2023-04-24T22:29:53;12.53;;;2.80;;
39948;SDS011;29070;48.102;-1.652;2023-04-24T22:34:53;9.00;;;1.90;;
39948;SDS011;29070;48.102;-1.652;2023-04-24T22:39:54;7.17;;;2.27;;
39948;SDS011;29070;48.102;-1.652;2023-04-24T22:44:54;12.27;;;2.28;;
39948;SDS011;29070;48.102;-1.652;2023-04-24T22:49:54;9.30;;;2.15;;
39948;SDS011;29070;48.102;-1.652;2023-04-24T22:54:56;10.63;;;2.72;;
39948;SDS011;29070;48.102;-1.652;2023-04-24T22:59:57;8.23;;;2.90;;
39948;SDS011;29070;48.102;-1.652;2023-04-24T23:04:57;9.60;;;2.55;;
39948;SDS011;29070;48.102;-1.652;2023-04-24T23:09:58;12.23;;;2.43;;
39948;SDS011;29070;48.102;-1.652;2023-04-24T23:14:58;11.10;;;2.20;;
39948;SDS011;29070;48.102;-1.652;2023-04-24T23:19:59;12.55;;;2.42;;
39948;SDS011;29070;48.102;-1.652;2023-04-24T23:24:59;8.95;;;2.58;;
39948;SDS011;29070;48.102;-1.652;2023-04-24T23:30:00;6.25;;;2.17;;
39948;SDS011;29070;48.102;-1.652;2023-04-24T23:35:00;14.87;;;2.87;;
39948;SDS011;29070;48.102;-1.652;2023-04-24T23:40:00;10.27;;;2.87;;
39948;SDS011;29070;48.102;-1.652;2023-04-24T23:45:01;10.02;;;3.10;;
39948;SDS011;29070;48.102;-1.652;2023-04-24T23:50:02;12.63;;;3.30;;
39948;SDS011;29070;48.102;-1.652;2023-04-24T23:55:03;11.05;;;2.67;;
